sensor_id;sensor_type;location;lat;lon;timestamp;temperature;humidity
2407;DHT22;37709;53.480;9.688;2023-05-09T00:02:08;11.00;59.20
2407;DHT22;37709;53.480;9.688;2023-05-09T00:04:35;11.20;58.90
2407;DHT22;37709;53.480;9.688;2023-05-09T00:07:03;11.10;58.90
2407;DHT22;37709;53.480;9.688;2023-05-09T00:09:31;10.90;59.20
2407;DHT22;37709;53.480;9.688;2023-05-09T00:11:59;10.90;59.40
2407;DHT22;37709;53.480;9.688;2023-05-09T00:14:26;10.80;59.50
2407;DHT22;37709;53.480;9.688;2023-05-09T00:16:53;10.80;59.50
2407;DHT22;37709;53.480;9.688;2023-05-09T00:19:21;10.80;59.90
2407;DHT22;37709;53.480;9.688;2023-05-09T00:21:48;10.70;60.00
2407;DHT22;37709;53.480;9.688;2023-05-09T00:24:15;10.70;60.10
2407;DHT22;37709;53.480;9.688;2023-05-09T00:26:43;10.70;60.10
2407;DHT22;37709;53.480;9.688;2023-05-09T00:29:10;10.70;59.80
2407;DHT22;37709;53.480;9.688;2023-05-09T00:31:37;10.80;59.80
2407;DHT22;37709;53.480;9.688;2023-05-09T00:34:04;10.80;60.00
2407;DHT22;37709;53.480;9.688;2023-05-09T00:36:32;10.70;60.00
2407;DHT22;37709;53.480;9.688;2023-05-09T00:38:59;10.60;60.30
2407;DHT22;37709;53.480;9.688;2023-05-09T00:41:26;10.50;60.70
2407;DHT22;37709;53.480;9.688;2023-05-09T00:43:54;10.50;61.10
2407;DHT22;37709;53.480;9.688;2023-05-09T00:46:21;10.50;61.30
2407;DHT22;37709;53.480;9.688;2023-05-09T00:48:49;10.60;60.90
2407;DHT22;37709;53.480;9.688;2023-05-09T00:51:16;10.60;61.00
2407;DHT22;37709;53.480;9.688;2023-05-09T00:53:44;10.60;61.30
2407;DHT22;37709;53.480;9.688;2023-05-09T00:56:13;10.60;61.40
2407;DHT22;37709;53.480;9.688;2023-05-09T00:58:42;10.50;61.50
2407;DHT22;37709;53.480;9.688;2023-05-09T01:01:10;10.50;61.80
2407;DHT22;37709;53.480;9.688;2023-05-09T01:03:38;10.50;62.00
2407;DHT22;37709;53.480;9.688;2023-05-09T01:06:14;10.40;62.60
2407;DHT22;37709;53.480;9.688;2023-05-09T01:08:50;10.30;62.90
2407;DHT22;37709;53.480;9.688;2023-05-09T01:11:35;10.40;62.90
2407;DHT22;37709;53.480;9.688;2023-05-09T01:14:32;10.40;63.00
2407;DHT22;37709;53.480;9.688;2023-05-09T01:17:11;10.30;63.00
2407;DHT22;37709;53.480;9.688;2023-05-09T01:19:56;10.40;63.40
2407;DHT22;37709;53.480;9.688;2023-05-09T01:22:32;10.30;63.60
2407;DHT22;37709;53.480;9.688;2023-05-09T01:28:12;10.20;64.20
2407;DHT22;37709;53.480;9.688;2023-05-09T01:30:44;10.30;64.20
2407;DHT22;37709;53.480;9.688;2023-05-09T01:33:15;10.30;64.30
2407;DHT22;37709;53.480;9.688;2023-05-09T01:35:52;10.40;64.30
2407;DHT22;37709;53.480;9.688;2023-05-09T01:38:22;10.30;64.50
2407;DHT22;37709;53.480;9.688;2023-05-09T01:40:53;10.30;64.80
2407;DHT22;37709;53.480;9.688;2023-05-09T01:43:21;10.20;65.20
2407;DHT22;37709;53.480;9.688;2023-05-09T01:45:52;10.10;65.60
2407;DHT22;37709;53.480;9.688;2023-05-09T01:48:20;10.10;65.90
2407;DHT22;37709;53.480;9.688;2023-05-09T01:50:48;10.10;65.80
2407;DHT22;37709;53.480;9.688;2023-05-09T01:53:16;10.00;66.10
2407;DHT22;37709;53.480;9.688;2023-05-09T01:55:44;9.80;67.60
2407;DHT22;37709;53.480;9.688;2023-05-09T01:58:13;9.90;68.10
2407;DHT22;37709;53.480;9.688;2023-05-09T02:00:42;9.90;67.90
2407;DHT22;37709;53.480;9.688;2023-05-09T02:03:10;9.80;68.30
2407;DHT22;37709;53.480;9.688;2023-05-09T02:05:38;9.80;68.50
2407;DHT22;37709;53.480;9.688;2023-05-09T02:08:07;9.70;68.90
2407;DHT22;37709;53.480;9.688;2023-05-09T02:10:36;9.60;69.30
2407;DHT22;37709;53.480;9.688;2023-05-09T02:13:04;9.60;69.50
2407;DHT22;37709;53.480;9.688;2023-05-09T02:15:32;9.50;69.50
2407;DHT22;37709;53.480;9.688;2023-05-09T02:17:59;9.40;70.00
2407;DHT22;37709;53.480;9.688;2023-05-09T02:20:28;9.30;70.70
2407;DHT22;37709;53.480;9.688;2023-05-09T02:22:55;9.20;71.10
2407;DHT22;37709;53.480;9.688;2023-05-09T02:25:23;9.20;71.50
2407;DHT22;37709;53.480;9.688;2023-05-09T02:27:51;9.30;71.60
2407;DHT22;37709;53.480;9.688;2023-05-09T02:30:23;9.20;71.50
2407;DHT22;37709;53.480;9.688;2023-05-09T02:32:55;9.10;71.90
2407;DHT22;37709;53.480;9.688;2023-05-09T02:35:26;9.10;72.40
2407;DHT22;37709;53.480;9.688;2023-05-09T02:37:55;9.00;72.70
2407;DHT22;37709;53.480;9.688;2023-05-09T02:40:23;9.10;73.10
2407;DHT22;37709;53.480;9.688;2023-05-09T02:42:53;9.10;73.20
2407;DHT22;37709;53.480;9.688;2023-05-09T02:45:21;9.10;73.40
2407;DHT22;37709;53.480;9.688;2023-05-09T02:47:48;9.10;73.40
2407;DHT22;37709;53.480;9.688;2023-05-09T02:50:15;9.10;73.60
2407;DHT22;37709;53.480;9.688;2023-05-09T02:52:43;9.00;73.70
2407;DHT22;37709;53.480;9.688;2023-05-09T02:55:11;9.00;74.30
2407;DHT22;37709;53.480;9.688;2023-05-09T02:57:40;9.00;74.40
2407;DHT22;37709;53.480;9.688;2023-05-09T03:00:08;9.00;74.70
2407;DHT22;37709;53.480;9.688;2023-05-09T03:02:36;9.00;74.80
2407;DHT22;37709;53.480;9.688;2023-05-09T03:05:07;9.10;75.10
2407;DHT22;37709;53.480;9.688;2023-05-09T03:07:36;9.10;74.80
2407;DHT22;37709;53.480;9.688;2023-05-09T03:10:03;9.10;75.10
2407;DHT22;37709;53.480;9.688;2023-05-09T03:12:31;9.10;75.20
2407;DHT22;37709;53.480;9.688;2023-05-09T03:14:59;9.10;75.30
2407;DHT22;37709;53.480;9.688;2023-05-09T03:17:27;9.10;75.60
2407;DHT22;37709;53.480;9.688;2023-05-09T03:19:54;9.10;76.00
2407;DHT22;37709;53.480;9.688;2023-05-09T03:22:22;9.00;76.50
2407;DHT22;37709;53.480;9.688;2023-05-09T03:24:56;9.00;76.70
2407;DHT22;37709;53.480;9.688;2023-05-09T03:27:23;8.90;77.20
2407;DHT22;37709;53.480;9.688;2023-05-09T03:29:53;8.80;77.60
2407;DHT22;37709;53.480;9.688;2023-05-09T03:32:21;8.80;78.30
2407;DHT22;37709;53.480;9.688;2023-05-09T03:34:48;8.80;78.40
2407;DHT22;37709;53.480;9.688;2023-05-09T03:37:16;8.70;78.80
2407;DHT22;37709;53.480;9.688;2023-05-09T03:39:44;8.60;79.60
2407;DHT22;37709;53.480;9.688;2023-05-09T03:42:11;8.60;80.50
2407;DHT22;37709;53.480;9.688;2023-05-09T03:44:40;8.60;81.00
2407;DHT22;37709;53.480;9.688;2023-05-09T03:47:07;8.60;81.60
2407;DHT22;37709;53.480;9.688;2023-05-09T03:49:38;8.60;82.40
2407;DHT22;37709;53.480;9.688;2023-05-09T03:52:07;8.60;82.50
2407;DHT22;37709;53.480;9.688;2023-05-09T03:54:35;8.60;82.70
2407;DHT22;37709;53.480;9.688;2023-05-09T03:57:04;8.60;83.10
2407;DHT22;37709;53.480;9.688;2023-05-09T03:59:31;8.70;83.40
2407;DHT22;37709;53.480;9.688;2023-05-09T04:01:59;8.70;83.70
2407;DHT22;37709;53.480;9.688;2023-05-09T04:04:26;8.70;83.90
2407;DHT22;37709;53.480;9.688;2023-05-09T04:06:54;8.80;84.20
2407;DHT22;37709;53.480;9.688;2023-05-09T04:09:22;8.80;84.10
2407;DHT22;37709;53.480;9.688;2023-05-09T04:11:50;8.80;84.40
2407;DHT22;37709;53.480;9.688;2023-05-09T04:14:17;8.80;84.80
2407;DHT22;37709;53.480;9.688;2023-05-09T04:16:45;8.80;85.30
2407;DHT22;37709;53.480;9.688;2023-05-09T04:19:12;8.80;85.40
2407;DHT22;37709;53.480;9.688;2023-05-09T04:21:39;8.80;85.80
2407;DHT22;37709;53.480;9.688;2023-05-09T04:24:07;8.80;85.80
2407;DHT22;37709;53.480;9.688;2023-05-09T04:26:40;8.90;85.90
2407;DHT22;37709;53.480;9.688;2023-05-09T04:29:11;9.00;85.80
2407;DHT22;37709;53.480;9.688;2023-05-09T04:31:38;8.90;86.00
2407;DHT22;37709;53.480;9.688;2023-05-09T04:34:08;9.00;86.20
2407;DHT22;37709;53.480;9.688;2023-05-09T04:36:37;9.00;86.10
2407;DHT22;37709;53.480;9.688;2023-05-09T04:39:05;9.00;86.90
2407;DHT22;37709;53.480;9.688;2023-05-09T04:41:35;8.90;87.70
2407;DHT22;37709;53.480;9.688;2023-05-09T04:44:02;8.90;88.40
2407;DHT22;37709;53.480;9.688;2023-05-09T04:46:54;8.90;88.30
2407;DHT22;37709;53.480;9.688;2023-05-09T04:49:21;9.00;89.20
2407;DHT22;37709;53.480;9.688;2023-05-09T04:51:52;9.00;89.20
2407;DHT22;37709;53.480;9.688;2023-05-09T04:54:19;9.10;88.90
2407;DHT22;37709;53.480;9.688;2023-05-09T04:56:51;9.10;89.10
2407;DHT22;37709;53.480;9.688;2023-05-09T04:59:22;9.10;89.50
2407;DHT22;37709;53.480;9.688;2023-05-09T05:01:49;9.30;89.00
2407;DHT22;37709;53.480;9.688;2023-05-09T05:04:20;9.30;88.60
2407;DHT22;37709;53.480;9.688;2023-05-09T05:06:48;9.40;88.40
2407;DHT22;37709;53.480;9.688;2023-05-09T05:09:15;9.50;88.10
2407;DHT22;37709;53.480;9.688;2023-05-09T05:11:44;9.50;88.90
2407;DHT22;37709;53.480;9.688;2023-05-09T05:14:26;9.60;88.70
2407;DHT22;37709;53.480;9.688;2023-05-09T05:16:54;9.60;88.20
2407;DHT22;37709;53.480;9.688;2023-05-09T05:19:22;9.70;88.00
2407;DHT22;37709;53.480;9.688;2023-05-09T05:21:50;9.80;88.20
2407;DHT22;37709;53.480;9.688;2023-05-09T05:24:17;9.80;88.00
2407;DHT22;37709;53.480;9.688;2023-05-09T05:26:45;9.80;88.20
2407;DHT22;37709;53.480;9.688;2023-05-09T05:29:12;9.90;87.80
2407;DHT22;37709;53.480;9.688;2023-05-09T05:31:39;10.00;86.90
2407;DHT22;37709;53.480;9.688;2023-05-09T05:34:07;10.10;86.80
2407;DHT22;37709;53.480;9.688;2023-05-09T05:36:35;10.20;86.80
2407;DHT22;37709;53.480;9.688;2023-05-09T05:39:02;10.20;86.40
2407;DHT22;37709;53.480;9.688;2023-05-09T05:41:30;10.30;86.10
2407;DHT22;37709;53.480;9.688;2023-05-09T05:43:58;10.40;85.60
2407;DHT22;37709;53.480;9.688;2023-05-09T05:46:26;10.50;85.50
2407;DHT22;37709;53.480;9.688;2023-05-09T05:48:54;10.50;85.70
2407;DHT22;37709;53.480;9.688;2023-05-09T05:51:23;10.60;85.50
2407;DHT22;37709;53.480;9.688;2023-05-09T05:53:50;10.70;85.30
2407;DHT22;37709;53.480;9.688;2023-05-09T05:56:18;10.80;85.00
2407;DHT22;37709;53.480;9.688;2023-05-09T05:58:45;10.90;84.40
2407;DHT22;37709;53.480;9.688;2023-05-09T06:01:13;11.00;84.30
2407;DHT22;37709;53.480;9.688;2023-05-09T06:03:42;11.10;84.40
2407;DHT22;37709;53.480;9.688;2023-05-09T06:06:10;11.30;84.20
2407;DHT22;37709;53.480;9.688;2023-05-09T06:08:38;11.50;84.00
2407;DHT22;37709;53.480;9.688;2023-05-09T06:11:05;11.50;83.30
2407;DHT22;37709;53.480;9.688;2023-05-09T06:13:34;11.70;82.80
2407;DHT22;37709;53.480;9.688;2023-05-09T06:16:04;11.90;82.20
2407;DHT22;37709;53.480;9.688;2023-05-09T06:18:47;12.10;81.60
2407;DHT22;37709;53.480;9.688;2023-05-09T06:21:15;12.20;80.70
2407;DHT22;37709;53.480;9.688;2023-05-09T06:23:42;12.40;80.50
2407;DHT22;37709;53.480;9.688;2023-05-09T06:26:28;12.60;80.40
2407;DHT22;37709;53.480;9.688;2023-05-09T06:28:55;12.80;79.20
2407;DHT22;37709;53.480;9.688;2023-05-09T06:31:23;13.20;78.00
2407;DHT22;37709;53.480;9.688;2023-05-09T06:33:52;13.80;76.20
2407;DHT22;37709;53.480;9.688;2023-05-09T06:36:19;14.80;73.50
2407;DHT22;37709;53.480;9.688;2023-05-09T06:38:46;16.10;70.00
2407;DHT22;37709;53.480;9.688;2023-05-09T06:41:13;17.60;66.10
2407;DHT22;37709;53.480;9.688;2023-05-09T06:43:41;19.30;61.90
2407;DHT22;37709;53.480;9.688;2023-05-09T06:46:08;20.90;58.20
2407;DHT22;37709;53.480;9.688;2023-05-09T06:48:36;22.30;55.50
2407;DHT22;37709;53.480;9.688;2023-05-09T06:51:04;23.40;53.70
2407;DHT22;37709;53.480;9.688;2023-05-09T06:53:31;24.00;51.80
2407;DHT22;37709;53.480;9.688;2023-05-09T06:55:58;24.30;50.30
2407;DHT22;37709;53.480;9.688;2023-05-09T06:58:25;24.60;49.40
2407;DHT22;37709;53.480;9.688;2023-05-09T07:00:54;24.80;49.10
2407;DHT22;37709;53.480;9.688;2023-05-09T07:03:22;25.40;48.20
2407;DHT22;37709;53.480;9.688;2023-05-09T07:05:49;25.70;48.10
2407;DHT22;37709;53.480;9.688;2023-05-09T07:08:17;26.30;47.10
2407;DHT22;37709;53.480;9.688;2023-05-09T07:10:45;26.70;46.10
2407;DHT22;37709;53.480;9.688;2023-05-09T07:13:12;27.20;45.20
2407;DHT22;37709;53.480;9.688;2023-05-09T07:15:39;27.40;45.10
2407;DHT22;37709;53.480;9.688;2023-05-09T07:18:15;28.00;44.10
2407;DHT22;37709;53.480;9.688;2023-05-09T07:20:44;28.50;43.60
2407;DHT22;37709;53.480;9.688;2023-05-09T07:23:13;29.20;42.90
2407;DHT22;37709;53.480;9.688;2023-05-09T07:25:41;29.60;42.10
2407;DHT22;37709;53.480;9.688;2023-05-09T07:28:10;29.90;41.90
2407;DHT22;37709;53.480;9.688;2023-05-09T07:30:38;29.40;41.40
2407;DHT22;37709;53.480;9.688;2023-05-09T07:33:06;28.90;42.90
2407;DHT22;37709;53.480;9.688;2023-05-09T07:35:34;28.60;42.50
2407;DHT22;37709;53.480;9.688;2023-05-09T07:38:01;28.00;43.00
2407;DHT22;37709;53.480;9.688;2023-05-09T07:40:28;27.70;43.50
2407;DHT22;37709;53.480;9.688;2023-05-09T07:42:55;28.00;43.70
2407;DHT22;37709;53.480;9.688;2023-05-09T07:45:23;27.90;43.70
2407;DHT22;37709;53.480;9.688;2023-05-09T07:47:50;27.30;44.20
2407;DHT22;37709;53.480;9.688;2023-05-09T07:50:17;26.30;45.40
2407;DHT22;37709;53.480;9.688;2023-05-09T07:52:44;25.20;46.80
2407;DHT22;37709;53.480;9.688;2023-05-09T07:55:12;25.00;48.50
2407;DHT22;37709;53.480;9.688;2023-05-09T07:57:40;26.40;46.90
2407;DHT22;37709;53.480;9.688;2023-05-09T08:00:07;27.90;45.00
2407;DHT22;37709;53.480;9.688;2023-05-09T08:02:39;28.00;44.20
2407;DHT22;37709;53.480;9.688;2023-05-09T08:05:07;28.30;44.00
2407;DHT22;37709;53.480;9.688;2023-05-09T08:07:37;28.10;44.00
2407;DHT22;37709;53.480;9.688;2023-05-09T08:10:05;28.00;43.40
2407;DHT22;37709;53.480;9.688;2023-05-09T08:12:33;27.70;44.80
2407;DHT22;37709;53.480;9.688;2023-05-09T08:15:00;28.00;44.60
2407;DHT22;37709;53.480;9.688;2023-05-09T08:17:28;28.00;43.70
2407;DHT22;37709;53.480;9.688;2023-05-09T08:19:55;27.40;45.00
2407;DHT22;37709;53.480;9.688;2023-05-09T08:22:22;28.40;44.40
2407;DHT22;37709;53.480;9.688;2023-05-09T08:24:50;28.60;43.60
2407;DHT22;37709;53.480;9.688;2023-05-09T08:27:18;29.90;42.60
2407;DHT22;37709;53.480;9.688;2023-05-09T08:29:45;31.60;41.80
2407;DHT22;37709;53.480;9.688;2023-05-09T08:32:12;32.20;39.60
2407;DHT22;37709;53.480;9.688;2023-05-09T08:34:40;32.60;38.80
2407;DHT22;37709;53.480;9.688;2023-05-09T08:37:07;32.50;38.70
2407;DHT22;37709;53.480;9.688;2023-05-09T08:39:35;32.60;38.60
2407;DHT22;37709;53.480;9.688;2023-05-09T08:42:03;32.50;38.50
2407;DHT22;37709;53.480;9.688;2023-05-09T08:44:30;33.00;38.20
2407;DHT22;37709;53.480;9.688;2023-05-09T08:46:59;32.90;38.20
2407;DHT22;37709;53.480;9.688;2023-05-09T08:49:27;33.30;38.20
2407;DHT22;37709;53.480;9.688;2023-05-09T08:51:56;34.00;37.30
2407;DHT22;37709;53.480;9.688;2023-05-09T08:54:24;34.10;36.90
2407;DHT22;37709;53.480;9.688;2023-05-09T08:56:52;34.20;36.40
2407;DHT22;37709;53.480;9.688;2023-05-09T08:59:20;33.50;37.00
2407;DHT22;37709;53.480;9.688;2023-05-09T09:01:48;33.80;36.50
2407;DHT22;37709;53.480;9.688;2023-05-09T09:04:16;34.00;36.60
2407;DHT22;37709;53.480;9.688;2023-05-09T09:06:43;34.20;36.40
2407;DHT22;37709;53.480;9.688;2023-05-09T09:09:11;34.30;36.20
2407;DHT22;37709;53.480;9.688;2023-05-09T09:11:41;34.60;36.30
2407;DHT22;37709;53.480;9.688;2023-05-09T09:14:12;35.50;35.20
2407;DHT22;37709;53.480;9.688;2023-05-09T09:16:45;35.20;35.00
2407;DHT22;37709;53.480;9.688;2023-05-09T09:19:16;35.20;35.10
2407;DHT22;37709;53.480;9.688;2023-05-09T09:21:45;35.40;34.90
2407;DHT22;37709;53.480;9.688;2023-05-09T09:24:13;35.30;34.90
2407;DHT22;37709;53.480;9.688;2023-05-09T09:26:46;35.40;34.90
2407;DHT22;37709;53.480;9.688;2023-05-09T09:29:15;36.00;34.20
2407;DHT22;37709;53.480;9.688;2023-05-09T09:31:44;36.70;35.20
2407;DHT22;37709;53.480;9.688;2023-05-09T09:34:19;37.10;33.40
2407;DHT22;37709;53.480;9.688;2023-05-09T09:36:47;37.10;32.90
2407;DHT22;37709;53.480;9.688;2023-05-09T09:39:14;37.00;32.30
2407;DHT22;37709;53.480;9.688;2023-05-09T09:41:42;37.10;32.20
2407;DHT22;37709;53.480;9.688;2023-05-09T09:44:16;37.70;32.20
2407;DHT22;37709;53.480;9.688;2023-05-09T09:46:54;37.80;31.20
2407;DHT22;37709;53.480;9.688;2023-05-09T09:49:23;37.20;31.20
2407;DHT22;37709;53.480;9.688;2023-05-09T09:51:55;38.00;31.80
2407;DHT22;37709;53.480;9.688;2023-05-09T09:54:26;38.90;30.30
2407;DHT22;37709;53.480;9.688;2023-05-09T09:56:54;38.40;29.90
2407;DHT22;37709;53.480;9.688;2023-05-09T09:59:23;38.30;30.10
2407;DHT22;37709;53.480;9.688;2023-05-09T10:01:54;38.50;29.80
2407;DHT22;37709;53.480;9.688;2023-05-09T10:04:22;38.80;29.90
2407;DHT22;37709;53.480;9.688;2023-05-09T10:06:54;38.80;29.10
2407;DHT22;37709;53.480;9.688;2023-05-09T10:09:24;38.90;29.40
2407;DHT22;37709;53.480;9.688;2023-05-09T10:11:53;38.90;28.90
2407;DHT22;37709;53.480;9.688;2023-05-09T10:14:24;37.90;29.80
2407;DHT22;37709;53.480;9.688;2023-05-09T10:16:56;38.40;29.20
2407;DHT22;37709;53.480;9.688;2023-05-09T10:19:28;38.70;29.10
2407;DHT22;37709;53.480;9.688;2023-05-09T10:21:58;38.70;28.90
2407;DHT22;37709;53.480;9.688;2023-05-09T10:24:41;38.10;29.50
2407;DHT22;37709;53.480;9.688;2023-05-09T10:27:10;38.50;29.30
2407;DHT22;37709;53.480;9.688;2023-05-09T10:29:49;38.90;28.60
2407;DHT22;37709;53.480;9.688;2023-05-09T10:32:26;39.10;28.20
2407;DHT22;37709;53.480;9.688;2023-05-09T10:34:59;38.70;28.40
2407;DHT22;37709;53.480;9.688;2023-05-09T10:37:27;38.50;29.20
2407;DHT22;37709;53.480;9.688;2023-05-09T10:39:56;39.30;28.30
2407;DHT22;37709;53.480;9.688;2023-05-09T10:42:24;38.60;28.10
2407;DHT22;37709;53.480;9.688;2023-05-09T10:44:51;38.20;28.00
2407;DHT22;37709;53.480;9.688;2023-05-09T10:47:20;38.50;28.60
2407;DHT22;37709;53.480;9.688;2023-05-09T10:49:48;38.80;28.00
2407;DHT22;37709;53.480;9.688;2023-05-09T10:52:16;39.00;27.90
2407;DHT22;37709;53.480;9.688;2023-05-09T10:54:57;39.00;27.90
2407;DHT22;37709;53.480;9.688;2023-05-09T10:57:27;38.60;28.00
2407;DHT22;37709;53.480;9.688;2023-05-09T10:59:55;38.40;27.90
2407;DHT22;37709;53.480;9.688;2023-05-09T11:02:24;38.50;28.00
2407;DHT22;37709;53.480;9.688;2023-05-09T11:05:16;38.20;27.70
2407;DHT22;37709;53.480;9.688;2023-05-09T11:07:44;38.10;28.00
2407;DHT22;37709;53.480;9.688;2023-05-09T11:10:16;37.70;27.90
2407;DHT22;37709;53.480;9.688;2023-05-09T11:12:57;37.30;28.40
2407;DHT22;37709;53.480;9.688;2023-05-09T11:15:26;37.90;28.30
2407;DHT22;37709;53.480;9.688;2023-05-09T11:18:08;38.20;28.10
2407;DHT22;37709;53.480;9.688;2023-05-09T11:20:42;37.70;27.90
2407;DHT22;37709;53.480;9.688;2023-05-09T11:23:10;38.00;27.70
2407;DHT22;37709;53.480;9.688;2023-05-09T11:25:45;38.00;27.60
2407;DHT22;37709;53.480;9.688;2023-05-09T11:28:30;37.80;27.40
2407;DHT22;37709;53.480;9.688;2023-05-09T11:31:27;37.60;27.60
2407;DHT22;37709;53.480;9.688;2023-05-09T11:34:00;37.10;28.30
2407;DHT22;37709;53.480;9.688;2023-05-09T11:36:30;37.20;28.00
2407;DHT22;37709;53.480;9.688;2023-05-09T11:39:09;36.70;28.00
2407;DHT22;37709;53.480;9.688;2023-05-09T11:41:39;36.60;28.20
2407;DHT22;37709;53.480;9.688;2023-05-09T11:44:12;36.70;28.30
2407;DHT22;37709;53.480;9.688;2023-05-09T11:46:40;37.40;27.60
2407;DHT22;37709;53.480;9.688;2023-05-09T11:49:08;37.30;27.60
2407;DHT22;37709;53.480;9.688;2023-05-09T11:51:38;37.20;27.60
2407;DHT22;37709;53.480;9.688;2023-05-09T11:54:08;36.80;27.60
2407;DHT22;37709;53.480;9.688;2023-05-09T11:56:38;36.80;27.60
2407;DHT22;37709;53.480;9.688;2023-05-09T11:59:06;36.70;27.80
2407;DHT22;37709;53.480;9.688;2023-05-09T12:01:34;36.20;27.60
2407;DHT22;37709;53.480;9.688;2023-05-09T12:04:02;36.20;27.90
2407;DHT22;37709;53.480;9.688;2023-05-09T12:06:33;36.20;27.50
2407;DHT22;37709;53.480;9.688;2023-05-09T12:09:00;36.80;27.70
2407;DHT22;37709;53.480;9.688;2023-05-09T12:11:28;37.80;28.00
2407;DHT22;37709;53.480;9.688;2023-05-09T12:13:58;37.80;26.70
2407;DHT22;37709;53.480;9.688;2023-05-09T12:16:25;36.90;27.30
2407;DHT22;37709;53.480;9.688;2023-05-09T12:18:52;37.00;27.40
2407;DHT22;37709;53.480;9.688;2023-05-09T12:21:20;36.70;27.80
2407;DHT22;37709;53.480;9.688;2023-05-09T12:23:48;36.60;27.40
2407;DHT22;37709;53.480;9.688;2023-05-09T12:26:20;36.20;27.40
2407;DHT22;37709;53.480;9.688;2023-05-09T12:28:49;35.80;28.10
2407;DHT22;37709;53.480;9.688;2023-05-09T12:31:16;36.20;28.00
2407;DHT22;37709;53.480;9.688;2023-05-09T12:33:45;36.20;27.70
2407;DHT22;37709;53.480;9.688;2023-05-09T12:36:12;36.00;27.90
2407;DHT22;37709;53.480;9.688;2023-05-09T12:38:52;36.00;28.60
2407;DHT22;37709;53.480;9.688;2023-05-09T12:41:20;36.40;28.10
2407;DHT22;37709;53.480;9.688;2023-05-09T12:43:56;36.50;28.10
2407;DHT22;37709;53.480;9.688;2023-05-09T12:46:24;36.80;27.50
2407;DHT22;37709;53.480;9.688;2023-05-09T12:48:51;36.50;28.00
2407;DHT22;37709;53.480;9.688;2023-05-09T12:51:19;36.20;27.90
2407;DHT22;37709;53.480;9.688;2023-05-09T12:53:47;36.10;27.80
2407;DHT22;37709;53.480;9.688;2023-05-09T12:56:19;35.90;27.80
2407;DHT22;37709;53.480;9.688;2023-05-09T12:58:48;36.00;27.80
2407;DHT22;37709;53.480;9.688;2023-05-09T13:01:16;36.40;27.70
2407;DHT22;37709;53.480;9.688;2023-05-09T13:03:50;36.30;28.10
2407;DHT22;37709;53.480;9.688;2023-05-09T13:06:18;35.80;27.90
2407;DHT22;37709;53.480;9.688;2023-05-09T13:08:56;35.90;27.70
2407;DHT22;37709;53.480;9.688;2023-05-09T13:11:25;35.70;28.30
2407;DHT22;37709;53.480;9.688;2023-05-09T13:13:53;36.00;28.30
2407;DHT22;37709;53.480;9.688;2023-05-09T13:16:21;35.70;28.20
2407;DHT22;37709;53.480;9.688;2023-05-09T13:18:48;35.60;28.50
2407;DHT22;37709;53.480;9.688;2023-05-09T13:21:16;35.40;28.30
2407;DHT22;37709;53.480;9.688;2023-05-09T13:23:43;35.00;28.70
2407;DHT22;37709;53.480;9.688;2023-05-09T13:26:11;35.10;29.10
2407;DHT22;37709;53.480;9.688;2023-05-09T13:28:39;34.90;29.50
2407;DHT22;37709;53.480;9.688;2023-05-09T13:31:07;34.60;29.60
2407;DHT22;37709;53.480;9.688;2023-05-09T13:33:34;34.90;29.00
2407;DHT22;37709;53.480;9.688;2023-05-09T13:36:03;35.10;29.00
2407;DHT22;37709;53.480;9.688;2023-05-09T13:38:30;35.30;29.70
2407;DHT22;37709;53.480;9.688;2023-05-09T13:40:58;36.20;29.40
2407;DHT22;37709;53.480;9.688;2023-05-09T13:43:26;35.20;29.00
2407;DHT22;37709;53.480;9.688;2023-05-09T13:45:54;35.00;29.10
2407;DHT22;37709;53.480;9.688;2023-05-09T13:48:21;35.40;29.20
2407;DHT22;37709;53.480;9.688;2023-05-09T13:50:49;35.20;28.70
2407;DHT22;37709;53.480;9.688;2023-05-09T13:53:16;34.60;28.80
2407;DHT22;37709;53.480;9.688;2023-05-09T13:55:44;33.50;29.50
2407;DHT22;37709;53.480;9.688;2023-05-09T13:58:12;33.30;30.00
2407;DHT22;37709;53.480;9.688;2023-05-09T14:00:40;33.20;29.40
2407;DHT22;37709;53.480;9.688;2023-05-09T14:03:08;34.30;28.50
2407;DHT22;37709;53.480;9.688;2023-05-09T14:05:35;34.40;28.60
2407;DHT22;37709;53.480;9.688;2023-05-09T14:08:02;34.60;28.60
2407;DHT22;37709;53.480;9.688;2023-05-09T14:10:30;35.00;28.40
2407;DHT22;37709;53.480;9.688;2023-05-09T14:12:57;34.90;28.10
2407;DHT22;37709;53.480;9.688;2023-05-09T14:15:26;35.30;27.80
2407;DHT22;37709;53.480;9.688;2023-05-09T14:17:53;35.30;27.70
2407;DHT22;37709;53.480;9.688;2023-05-09T14:20:20;34.40;28.30
2407;DHT22;37709;53.480;9.688;2023-05-09T14:22:47;34.20;29.50
2407;DHT22;37709;53.480;9.688;2023-05-09T14:25:15;34.20;28.60
2407;DHT22;37709;53.480;9.688;2023-05-09T14:27:42;34.40;28.90
2407;DHT22;37709;53.480;9.688;2023-05-09T14:30:09;34.20;28.40
2407;DHT22;37709;53.480;9.688;2023-05-09T14:32:37;33.70;28.90
2407;DHT22;37709;53.480;9.688;2023-05-09T14:35:04;33.60;28.90
2407;DHT22;37709;53.480;9.688;2023-05-09T14:37:32;33.60;29.20
2407;DHT22;37709;53.480;9.688;2023-05-09T14:39:59;33.20;29.20
2407;DHT22;37709;53.480;9.688;2023-05-09T14:42:31;33.40;29.60
2407;DHT22;37709;53.480;9.688;2023-05-09T14:44:59;32.90;29.40
2407;DHT22;37709;53.480;9.688;2023-05-09T14:47:26;32.20;30.30
2407;DHT22;37709;53.480;9.688;2023-05-09T14:49:53;31.80;30.90
2407;DHT22;37709;53.480;9.688;2023-05-09T14:52:21;31.50;31.10
2407;DHT22;37709;53.480;9.688;2023-05-09T14:54:48;31.00;31.50
2407;DHT22;37709;53.480;9.688;2023-05-09T14:57:15;30.80;31.90
2407;DHT22;37709;53.480;9.688;2023-05-09T14:59:43;30.70;33.20
2407;DHT22;37709;53.480;9.688;2023-05-09T15:02:10;30.70;34.00
2407;DHT22;37709;53.480;9.688;2023-05-09T15:04:37;30.20;35.10
2407;DHT22;37709;53.480;9.688;2023-05-09T15:07:06;29.60;39.30
2407;DHT22;37709;53.480;9.688;2023-05-09T15:09:34;29.40;33.80
2407;DHT22;37709;53.480;9.688;2023-05-09T15:12:01;29.20;33.70
2407;DHT22;37709;53.480;9.688;2023-05-09T15:14:28;29.00;34.90
2407;DHT22;37709;53.480;9.688;2023-05-09T15:16:56;28.90;35.60
2407;DHT22;37709;53.480;9.688;2023-05-09T15:19:27;29.00;35.00
2407;DHT22;37709;53.480;9.688;2023-05-09T15:21:58;28.60;35.50
2407;DHT22;37709;53.480;9.688;2023-05-09T15:24:25;28.10;35.90
2407;DHT22;37709;53.480;9.688;2023-05-09T15:26:53;27.70;36.30
2407;DHT22;37709;53.480;9.688;2023-05-09T15:29:20;27.50;36.60
2407;DHT22;37709;53.480;9.688;2023-05-09T15:31:50;27.50;37.20
2407;DHT22;37709;53.480;9.688;2023-05-09T15:34:17;27.10;37.70
2407;DHT22;37709;53.480;9.688;2023-05-09T15:36:45;26.90;38.50
2407;DHT22;37709;53.480;9.688;2023-05-09T15:39:12;26.50;39.00
2407;DHT22;37709;53.480;9.688;2023-05-09T15:41:39;26.30;39.10
2407;DHT22;37709;53.480;9.688;2023-05-09T15:44:07;25.90;39.80
2407;DHT22;37709;53.480;9.688;2023-05-09T15:46:34;25.80;40.00
2407;DHT22;37709;53.480;9.688;2023-05-09T15:49:02;25.60;40.30
2407;DHT22;37709;53.480;9.688;2023-05-09T15:51:29;25.40;40.30
2407;DHT22;37709;53.480;9.688;2023-05-09T15:53:57;25.20;40.50
2407;DHT22;37709;53.480;9.688;2023-05-09T15:56:25;25.00;40.70
2407;DHT22;37709;53.480;9.688;2023-05-09T15:58:52;24.90;41.50
2407;DHT22;37709;53.480;9.688;2023-05-09T16:01:22;24.80;41.60
2407;DHT22;37709;53.480;9.688;2023-05-09T16:03:50;24.70;42.30
2407;DHT22;37709;53.480;9.688;2023-05-09T16:06:18;24.40;42.40